This is the latest recevied weather packets stored in our database for station/object SP6RGZ-1. If no packets are shown the sender has not sent any weather packets the latest 10 day(s).
| Time | Temp. | Humidity | Pressure | Rain* | Wind** | Luminosity | Snow |
|---|---|---|---|---|---|---|---|
| 1788012902 | 25.56° C | 45% | 995.5 hPa | - | - | - | - |
| 1788012002 | 25.56° C | 47% | 995.4 hPa | - | - | - | - |
| 1788011102 | 25.56° C | 49% | 995.5 hPa | - | - | - | - |
| 1788010202 | 25.56° C | 51% | 995.6 hPa | - | - | - | - |
| 1788009302 | 25.56° C | 48% | 995.5 hPa | - | - | - | - |
| 1788008402 | 25.56° C | 49% | 995.4 hPa | - | - | - | - |
| 1788007501 | 25° C | 50% | 995.3 hPa | - | - | - | - |
| 1788006602 | 25° C | 53% | 995.3 hPa | - | - | - | - |
| 1788005703 | 25° C | 53% | 995.3 hPa | - | - | - | - |
| 1788004802 | 25° C | 55% | 995.3 hPa | - | - | - | - |
| 1788003902 | 25.56° C | 58% | 995.3 hPa | - | - | - | - |
| 1788003002 | 25° C | 57% | 995.4 hPa | - | - | - | - |
| 1788002102 | 25.56° C | 59% | 995.4 hPa | - | - | - | - |
| 1788001202 | 25.56° C | 57% | 995.3 hPa | - | - | - | - |
| 1788000302 | 26.11° C | 62% | 995.4 hPa | - | - | - | - |
| 1787999401 | 25.56° C | 64% | 995.4 hPa | - | - | - | - |
| 1787998502 | 25° C | 63% | 995.3 hPa | - | - | - | - |
| 1787997601 | 26.11° C | 62% | 995.2 hPa | - | - | - | - |
| 1787996702 | 25.56° C | 63% | 995.3 hPa | - | - | - | - |
| 1787995802 | 24.44° C | 65% | 995.2 hPa | - | - | - | - |
| 1787994902 | 24.44° C | 69% | 995.3 hPa | - | - | - | - |
| 1787994002 | 25° C | 66% | 995.1 hPa | - | - | - | - |
| 1787993102 | 24.44° C | 68% | 995.2 hPa | - | - | - | - |
| 1787992202 | 24.44° C | 71% | 995.2 hPa | - | - | - | - |
| 1787991302 | 23.89° C | 73% | 995.2 hPa | - | - | - | - |
* Rain since midnight (hover to see other rain measurements)
** Current wind speed in m/s (hover to see current wind gust speed)